sensor_id;sensor_type;location;lat;lon;timestamp;P1;durP1;ratioP1;P2;durP2;ratioP2
72920;SDS011;61064;51.654;5.476;2022-11-28T00:01:44;9.57;;;3.83;;
72920;SDS011;61064;51.654;5.476;2022-11-28T00:04:10;8.93;;;3.90;;
72920;SDS011;61064;51.654;5.476;2022-11-28T00:06:37;9.00;;;4.00;;
72920;SDS011;61064;51.654;5.476;2022-11-28T00:09:09;8.90;;;3.80;;
72920;SDS011;61064;51.654;5.476;2022-11-28T00:11:37;11.17;;;3.50;;
72920;SDS011;61064;51.654;5.476;2022-11-28T00:14:04;9.55;;;3.60;;
72920;SDS011;61064;51.654;5.476;2022-11-28T00:16:30;8.63;;;3.25;;
72920;SDS011;61064;51.654;5.476;2022-11-28T00:19:03;9.75;;;3.58;;
72920;SDS011;61064;51.654;5.476;2022-11-28T00:21:29;7.83;;;3.40;;
72920;SDS011;61064;51.654;5.476;2022-11-28T00:23:56;8.82;;;3.67;;
72920;SDS011;61064;51.654;5.476;2022-11-28T00:26:30;8.95;;;3.60;;
72920;SDS011;61064;51.654;5.476;2022-11-28T00:29:07;8.20;;;3.22;;
72920;SDS011;61064;51.654;5.476;2022-11-28T00:31:44;8.90;;;3.63;;
72920;SDS011;61064;51.654;5.476;2022-11-28T00:34:13;9.53;;;3.70;;
72920;SDS011;61064;51.654;5.476;2022-11-28T00:43:59;10.32;;;3.53;;
72920;SDS011;61064;51.654;5.476;2022-11-28T00:46:25;8.82;;;3.20;;
72920;SDS011;61064;51.654;5.476;2022-11-28T00:48:52;7.80;;;3.00;;
72920;SDS011;61064;51.654;5.476;2022-11-28T00:51:19;9.15;;;3.25;;
72920;SDS011;61064;51.654;5.476;2022-11-28T00:53:46;8.93;;;3.28;;
72920;SDS011;61064;51.654;5.476;2022-11-28T00:56:14;7.25;;;2.70;;
72920;SDS011;61064;51.654;5.476;2022-11-28T00:58:41;8.60;;;2.83;;
72920;SDS011;61064;51.654;5.476;2022-11-28T01:01:11;8.23;;;2.80;;
72920;SDS011;61064;51.654;5.476;2022-11-28T01:03:42;7.00;;;2.88;;
72920;SDS011;61064;51.654;5.476;2022-11-28T01:06:33;8.35;;;2.72;;
72920;SDS011;61064;51.654;5.476;2022-11-28T01:09:02;7.53;;;2.38;;
72920;SDS011;61064;51.654;5.476;2022-11-28T01:11:30;7.65;;;2.60;;
72920;SDS011;61064;51.654;5.476;2022-11-28T01:13:56;7.57;;;2.40;;
72920;SDS011;61064;51.654;5.476;2022-11-28T01:16:24;7.05;;;2.55;;
72920;SDS011;61064;51.654;5.476;2022-11-28T01:18:53;7.00;;;2.53;;
72920;SDS011;61064;51.654;5.476;2022-11-28T01:21:19;7.03;;;2.40;;
72920;SDS011;61064;51.654;5.476;2022-11-28T01:23:45;7.68;;;2.50;;
72920;SDS011;61064;51.654;5.476;2022-11-28T01:26:14;7.50;;;2.40;;
72920;SDS011;61064;51.654;5.476;2022-11-28T01:28:44;8.05;;;2.88;;
72920;SDS011;61064;51.654;5.476;2022-11-28T01:31:15;6.10;;;2.40;;
72920;SDS011;61064;51.654;5.476;2022-11-28T01:33:44;7.20;;;2.37;;
72920;SDS011;61064;51.654;5.476;2022-11-28T01:36:16;7.95;;;2.30;;
72920;SDS011;61064;51.654;5.476;2022-11-28T01:38:45;7.65;;;2.55;;
72920;SDS011;61064;51.654;5.476;2022-11-28T01:41:12;7.10;;;2.40;;
72920;SDS011;61064;51.654;5.476;2022-11-28T01:43:55;7.22;;;2.47;;
72920;SDS011;61064;51.654;5.476;2022-11-28T01:46:27;6.40;;;2.57;;
72920;SDS011;61064;51.654;5.476;2022-11-28T01:48:56;8.80;;;2.53;;
72920;SDS011;61064;51.654;5.476;2022-11-28T01:51:25;8.52;;;2.53;;
72920;SDS011;61064;51.654;5.476;2022-11-28T01:53:51;9.20;;;2.85;;
72920;SDS011;61064;51.654;5.476;2022-11-28T01:56:24;8.60;;;2.88;;
72920;SDS011;61064;51.654;5.476;2022-11-28T01:59:01;7.90;;;2.83;;
72920;SDS011;61064;51.654;5.476;2022-11-28T02:01:31;9.00;;;2.92;;
72920;SDS011;61064;51.654;5.476;2022-11-28T02:03:59;8.13;;;2.97;;
72920;SDS011;61064;51.654;5.476;2022-11-28T02:06:27;8.65;;;3.00;;
72920;SDS011;61064;51.654;5.476;2022-11-28T02:08:57;8.20;;;2.78;;
72920;SDS011;61064;51.654;5.476;2022-11-28T02:17:10;8.02;;;2.70;;
72920;SDS011;61064;51.654;5.476;2022-11-28T02:37:04;10.13;;;2.80;;
72920;SDS011;61064;51.654;5.476;2022-11-28T02:39:50;8.85;;;2.97;;
72920;SDS011;61064;51.654;5.476;2022-11-28T02:54:06;7.70;;;2.67;;
72920;SDS011;61064;51.654;5.476;2022-11-28T02:56:35;7.70;;;2.70;;
72920;SDS011;61064;51.654;5.476;2022-11-28T02:59:00;7.77;;;2.70;;
72920;SDS011;61064;51.654;5.476;2022-11-28T03:01:34;8.30;;;2.95;;
72920;SDS011;61064;51.654;5.476;2022-11-28T03:15:22;7.85;;;2.50;;
72920;SDS011;61064;51.654;5.476;2022-11-28T03:18:12;7.55;;;2.50;;
72920;SDS011;61064;51.654;5.476;2022-11-28T03:23:47;6.78;;;2.45;;
72920;SDS011;61064;51.654;5.476;2022-11-28T03:29:40;8.30;;;2.38;;
72920;SDS011;61064;51.654;5.476;2022-11-28T03:32:17;7.80;;;2.40;;
72920;SDS011;61064;51.654;5.476;2022-11-28T03:34:49;7.03;;;2.13;;
72920;SDS011;61064;51.654;5.476;2022-11-28T03:37:26;7.28;;;2.47;;
72920;SDS011;61064;51.654;5.476;2022-11-28T03:39:58;7.47;;;2.23;;
72920;SDS011;61064;51.654;5.476;2022-11-28T03:42:31;8.32;;;2.30;;
72920;SDS011;61064;51.654;5.476;2022-11-28T03:45:10;8.63;;;2.75;;
72920;SDS011;61064;51.654;5.476;2022-11-28T03:47:46;7.22;;;2.40;;
72920;SDS011;61064;51.654;5.476;2022-11-28T03:50:28;7.35;;;2.38;;
72920;SDS011;61064;51.654;5.476;2022-11-28T03:53:11;6.80;;;2.37;;
72920;SDS011;61064;51.654;5.476;2022-11-28T03:55:47;8.02;;;2.70;;
72920;SDS011;61064;51.654;5.476;2022-11-28T03:58:26;7.18;;;2.88;;
72920;SDS011;61064;51.654;5.476;2022-11-28T04:01:07;8.10;;;2.92;;
72920;SDS011;61064;51.654;5.476;2022-11-28T04:06:56;9.57;;;2.77;;
72920;SDS011;61064;51.654;5.476;2022-11-28T04:09:47;6.22;;;2.58;;
72920;SDS011;61064;51.654;5.476;2022-11-28T04:12:26;7.95;;;2.55;;
72920;SDS011;61064;51.654;5.476;2022-11-28T04:15:16;7.53;;;2.80;;
72920;SDS011;61064;51.654;5.476;2022-11-28T04:23:54;7.82;;;2.70;;
72920;SDS011;61064;51.654;5.476;2022-11-28T04:26:34;7.32;;;2.50;;
72920;SDS011;61064;51.654;5.476;2022-11-28T04:29:05;7.55;;;2.92;;
72920;SDS011;61064;51.654;5.476;2022-11-28T04:31:38;6.90;;;2.47;;
72920;SDS011;61064;51.654;5.476;2022-11-28T04:34:15;7.17;;;2.70;;
72920;SDS011;61064;51.654;5.476;2022-11-28T04:36:44;8.70;;;2.90;;
72920;SDS011;61064;51.654;5.476;2022-11-28T04:39:21;8.63;;;2.80;;
72920;SDS011;61064;51.654;5.476;2022-11-28T04:42:14;6.82;;;2.90;;
72920;SDS011;61064;51.654;5.476;2022-11-28T04:48:13;7.03;;;2.70;;
72920;SDS011;61064;51.654;5.476;2022-11-28T04:50:49;7.47;;;2.33;;
72920;SDS011;61064;51.654;5.476;2022-11-28T04:53:30;8.07;;;2.90;;
72920;SDS011;61064;51.654;5.476;2022-11-28T04:56:04;7.13;;;2.90;;
72920;SDS011;61064;51.654;5.476;2022-11-28T04:58:38;7.40;;;2.88;;
72920;SDS011;61064;51.654;5.476;2022-11-28T05:01:09;6.73;;;2.73;;
72920;SDS011;61064;51.654;5.476;2022-11-28T05:03:38;7.18;;;2.72;;
72920;SDS011;61064;51.654;5.476;2022-11-28T05:06:23;7.50;;;3.00;;
72920;SDS011;61064;51.654;5.476;2022-11-28T05:08:53;8.18;;;2.80;;
72920;SDS011;61064;51.654;5.476;2022-11-28T05:11:22;7.38;;;2.90;;
72920;SDS011;61064;51.654;5.476;2022-11-28T05:13:47;7.20;;;2.90;;
72920;SDS011;61064;51.654;5.476;2022-11-28T05:16:13;7.85;;;2.78;;
72920;SDS011;61064;51.654;5.476;2022-11-28T05:18:39;7.07;;;2.80;;
72920;SDS011;61064;51.654;5.476;2022-11-28T05:21:08;7.28;;;2.63;;
72920;SDS011;61064;51.654;5.476;2022-11-28T05:23:37;7.60;;;2.60;;
72920;SDS011;61064;51.654;5.476;2022-11-28T05:26:05;8.38;;;3.10;;
72920;SDS011;61064;51.654;5.476;2022-11-28T05:28:37;9.85;;;3.42;;
72920;SDS011;61064;51.654;5.476;2022-11-28T05:31:05;8.10;;;3.30;;
72920;SDS011;61064;51.654;5.476;2022-11-28T05:33:31;8.93;;;3.53;;
72920;SDS011;61064;51.654;5.476;2022-11-28T05:36:03;8.37;;;3.30;;
72920;SDS011;61064;51.654;5.476;2022-11-28T05:38:30;8.57;;;3.40;;
72920;SDS011;61064;51.654;5.476;2022-11-28T05:41:00;7.10;;;2.90;;
72920;SDS011;61064;51.654;5.476;2022-11-28T05:43:26;8.25;;;3.30;;
72920;SDS011;61064;51.654;5.476;2022-11-28T05:45:52;8.87;;;3.47;;
72920;SDS011;61064;51.654;5.476;2022-11-28T05:48:18;8.02;;;3.20;;
72920;SDS011;61064;51.654;5.476;2022-11-28T05:50:43;9.13;;;3.72;;
72920;SDS011;61064;51.654;5.476;2022-11-28T05:53:09;7.83;;;3.60;;
72920;SDS011;61064;51.654;5.476;2022-11-28T05:55:38;11.70;;;3.97;;
72920;SDS011;61064;51.654;5.476;2022-11-28T05:58:04;8.20;;;3.70;;
72920;SDS011;61064;51.654;5.476;2022-11-28T06:00:31;8.32;;;3.63;;
72920;SDS011;61064;51.654;5.476;2022-11-28T06:02:59;8.25;;;3.83;;
72920;SDS011;61064;51.654;5.476;2022-11-28T06:05:25;9.13;;;3.97;;
72920;SDS011;61064;51.654;5.476;2022-11-28T06:07:50;8.18;;;3.65;;
72920;SDS011;61064;51.654;5.476;2022-11-28T06:10:18;8.32;;;4.03;;
72920;SDS011;61064;51.654;5.476;2022-11-28T06:12:46;8.70;;;3.70;;
72920;SDS011;61064;51.654;5.476;2022-11-28T06:15:12;9.38;;;4.20;;
72920;SDS011;61064;51.654;5.476;2022-11-28T06:17:37;7.80;;;3.80;;
72920;SDS011;61064;51.654;5.476;2022-11-28T06:20:05;10.65;;;4.50;;
72920;SDS011;61064;51.654;5.476;2022-11-28T06:22:34;8.80;;;4.30;;
72920;SDS011;61064;51.654;5.476;2022-11-28T06:24:59;9.07;;;4.10;;
72920;SDS011;61064;51.654;5.476;2022-11-28T06:27:27;8.63;;;4.15;;
72920;SDS011;61064;51.654;5.476;2022-11-28T06:29:53;8.30;;;4.13;;
72920;SDS011;61064;51.654;5.476;2022-11-28T06:32:18;10.53;;;4.60;;
72920;SDS011;61064;51.654;5.476;2022-11-28T06:34:43;8.30;;;4.63;;
72920;SDS011;61064;51.654;5.476;2022-11-28T06:37:09;7.83;;;4.10;;
72920;SDS011;61064;51.654;5.476;2022-11-28T06:39:34;9.47;;;4.37;;
72920;SDS011;61064;51.654;5.476;2022-11-28T06:42:00;9.57;;;4.40;;
72920;SDS011;61064;51.654;5.476;2022-11-28T06:44:26;9.33;;;4.67;;
72920;SDS011;61064;51.654;5.476;2022-11-28T06:46:51;8.00;;;3.97;;
72920;SDS011;61064;51.654;5.476;2022-11-28T06:49:18;8.45;;;4.63;;
72920;SDS011;61064;51.654;5.476;2022-11-28T06:51:44;8.77;;;4.50;;
72920;SDS011;61064;51.654;5.476;2022-11-28T06:54:10;9.00;;;4.60;;
72920;SDS011;61064;51.654;5.476;2022-11-28T06:56:36;9.27;;;4.75;;
72920;SDS011;61064;51.654;5.476;2022-11-28T06:59:03;8.32;;;4.40;;
72920;SDS011;61064;51.654;5.476;2022-11-28T07:01:29;10.37;;;4.87;;
72920;SDS011;61064;51.654;5.476;2022-11-28T07:03:55;10.05;;;5.07;;
72920;SDS011;61064;51.654;5.476;2022-11-28T07:06:21;8.77;;;4.88;;
72920;SDS011;61064;51.654;5.476;2022-11-28T07:08:49;8.53;;;4.47;;
72920;SDS011;61064;51.654;5.476;2022-11-28T07:11:16;9.80;;;4.57;;
72920;SDS011;61064;51.654;5.476;2022-11-28T07:13:46;10.13;;;4.88;;
72920;SDS011;61064;51.654;5.476;2022-11-28T07:16:14;8.82;;;4.88;;
72920;SDS011;61064;51.654;5.476;2022-11-28T07:18:42;9.47;;;4.90;;
72920;SDS011;61064;51.654;5.476;2022-11-28T07:21:08;9.75;;;4.70;;
72920;SDS011;61064;51.654;5.476;2022-11-28T07:23:34;10.00;;;4.95;;
72920;SDS011;61064;51.654;5.476;2022-11-28T07:26:00;11.07;;;4.70;;
72920;SDS011;61064;51.654;5.476;2022-11-28T07:28:29;10.20;;;4.93;;
72920;SDS011;61064;51.654;5.476;2022-11-28T07:31:06;10.17;;;5.40;;
72920;SDS011;61064;51.654;5.476;2022-11-28T07:33:55;11.10;;;5.25;;
72920;SDS011;61064;51.654;5.476;2022-11-28T07:36:22;11.20;;;5.50;;
72920;SDS011;61064;51.654;5.476;2022-11-28T07:38:50;9.60;;;5.07;;
72920;SDS011;61064;51.654;5.476;2022-11-28T07:41:17;10.82;;;5.60;;
72920;SDS011;61064;51.654;5.476;2022-11-28T07:43:44;10.13;;;5.38;;
72920;SDS011;61064;51.654;5.476;2022-11-28T07:46:12;11.18;;;5.80;;
72920;SDS011;61064;51.654;5.476;2022-11-28T07:48:40;9.60;;;5.30;;
72920;SDS011;61064;51.654;5.476;2022-11-28T07:51:07;11.60;;;5.55;;
72920;SDS011;61064;51.654;5.476;2022-11-28T07:53:34;13.05;;;5.68;;
72920;SDS011;61064;51.654;5.476;2022-11-28T07:56:03;10.68;;;5.80;;
72920;SDS011;61064;51.654;5.476;2022-11-28T07:58:30;10.90;;;5.70;;
72920;SDS011;61064;51.654;5.476;2022-11-28T08:00:55;9.60;;;5.38;;
72920;SDS011;61064;51.654;5.476;2022-11-28T08:03:21;12.03;;;6.10;;
72920;SDS011;61064;51.654;5.476;2022-11-28T08:05:47;12.05;;;6.43;;
72920;SDS011;61064;51.654;5.476;2022-11-28T08:08:17;12.47;;;5.97;;
72920;SDS011;61064;51.654;5.476;2022-11-28T08:10:43;12.02;;;5.68;;
72920;SDS011;61064;51.654;5.476;2022-11-28T08:13:10;12.95;;;6.20;;
72920;SDS011;61064;51.654;5.476;2022-11-28T08:15:37;12.75;;;6.35;;
72920;SDS011;61064;51.654;5.476;2022-11-28T08:18:03;14.05;;;6.40;;
72920;SDS011;61064;51.654;5.476;2022-11-28T08:20:29;12.20;;;6.10;;
72920;SDS011;61064;51.654;5.476;2022-11-28T08:22:54;13.23;;;6.47;;
72920;SDS011;61064;51.654;5.476;2022-11-28T08:25:20;14.55;;;6.35;;
72920;SDS011;61064;51.654;5.476;2022-11-28T08:27:45;10.93;;;5.80;;
72920;SDS011;61064;51.654;5.476;2022-11-28T08:30:11;13.27;;;6.63;;
72920;SDS011;61064;51.654;5.476;2022-11-28T08:32:36;11.93;;;6.35;;
72920;SDS011;61064;51.654;5.476;2022-11-28T08:35:02;13.50;;;7.03;;
72920;SDS011;61064;51.654;5.476;2022-11-28T08:37:27;12.67;;;6.43;;
72920;SDS011;61064;51.654;5.476;2022-11-28T08:39:53;12.73;;;6.20;;
72920;SDS011;61064;51.654;5.476;2022-11-28T08:42:18;12.87;;;6.30;;
72920;SDS011;61064;51.654;5.476;2022-11-28T08:44:46;13.80;;;6.22;;
72920;SDS011;61064;51.654;5.476;2022-11-28T08:47:11;15.73;;;7.00;;
72920;SDS011;61064;51.654;5.476;2022-11-28T08:49:37;11.83;;;6.30;;
72920;SDS011;61064;51.654;5.476;2022-11-28T08:52:03;13.40;;;6.40;;
72920;SDS011;61064;51.654;5.476;2022-11-28T08:54:29;13.55;;;6.60;;
72920;SDS011;61064;51.654;5.476;2022-11-28T08:56:55;14.15;;;6.40;;
72920;SDS011;61064;51.654;5.476;2022-11-28T08:59:21;11.80;;;6.13;;
72920;SDS011;61064;51.654;5.476;2022-11-28T09:01:46;12.70;;;6.20;;
72920;SDS011;61064;51.654;5.476;2022-11-28T09:04:12;16.10;;;7.17;;
72920;SDS011;61064;51.654;5.476;2022-11-28T09:06:38;14.23;;;6.40;;
72920;SDS011;61064;51.654;5.476;2022-11-28T09:09:04;15.50;;;6.70;;
72920;SDS011;61064;51.654;5.476;2022-11-28T09:11:29;13.77;;;6.17;;
72920;SDS011;61064;51.654;5.476;2022-11-28T09:13:55;15.33;;;6.70;;
72920;SDS011;61064;51.654;5.476;2022-11-28T09:16:23;13.77;;;6.70;;
72920;SDS011;61064;51.654;5.476;2022-11-28T09:18:49;14.50;;;6.43;;
72920;SDS011;61064;51.654;5.476;2022-11-28T09:21:15;14.83;;;6.90;;
72920;SDS011;61064;51.654;5.476;2022-11-28T09:23:42;16.27;;;6.93;;
72920;SDS011;61064;51.654;5.476;2022-11-28T09:26:15;16.10;;;7.32;;
72920;SDS011;61064;51.654;5.476;2022-11-28T09:28:43;17.23;;;7.50;;
72920;SDS011;61064;51.654;5.476;2022-11-28T09:31:09;17.00;;;7.43;;
72920;SDS011;61064;51.654;5.476;2022-11-28T09:33:39;14.40;;;6.93;;
72920;SDS011;61064;51.654;5.476;2022-11-28T09:36:08;16.55;;;7.28;;
72920;SDS011;61064;51.654;5.476;2022-11-28T09:38:36;16.38;;;7.22;;
72920;SDS011;61064;51.654;5.476;2022-11-28T09:41:02;16.05;;;7.35;;
72920;SDS011;61064;51.654;5.476;2022-11-28T09:43:44;18.52;;;8.07;;
72920;SDS011;61064;51.654;5.476;2022-11-28T09:46:13;16.97;;;7.17;;
72920;SDS011;61064;51.654;5.476;2022-11-28T09:48:51;14.77;;;7.03;;
72920;SDS011;61064;51.654;5.476;2022-11-28T09:51:20;15.07;;;6.95;;
72920;SDS011;61064;51.654;5.476;2022-11-28T09:56:46;14.73;;;6.78;;
72920;SDS011;61064;51.654;5.476;2022-11-28T09:59:32;14.10;;;6.37;;
72920;SDS011;61064;51.654;5.476;2022-11-28T10:05:16;14.32;;;6.80;;
72920;SDS011;61064;51.654;5.476;2022-11-28T10:15:57;13.43;;;6.20;;
72920;SDS011;61064;51.654;5.476;2022-11-28T10:18:40;15.25;;;6.35;;
72920;SDS011;61064;51.654;5.476;2022-11-28T10:23:58;13.15;;;6.07;;
72920;SDS011;61064;51.654;5.476;2022-11-28T10:26:35;13.55;;;5.95;;
72920;SDS011;61064;51.654;5.476;2022-11-28T10:31:51;12.38;;;5.90;;
72920;SDS011;61064;51.654;5.476;2022-11-28T10:37:04;13.52;;;5.93;;
72920;SDS011;61064;51.654;5.476;2022-11-28T10:39:33;12.88;;;6.30;;
72920;SDS011;61064;51.654;5.476;2022-11-28T10:43:04;14.00;;;6.93;;
72920;SDS011;61064;51.654;5.476;2022-11-28T10:45:12;15.00;;;6.50;;
72920;SDS011;61064;51.654;5.476;2022-11-28T10:59:21;16.50;;;6.80;;
72920;SDS011;61064;51.654;5.476;2022-11-28T11:01:48;16.00;;;6.90;;
72920;SDS011;61064;51.654;5.476;2022-11-28T11:04:19;17.85;;;7.57;;
72920;SDS011;61064;51.654;5.476;2022-11-28T11:07:09;16.83;;;7.85;;
72920;SDS011;61064;51.654;5.476;2022-11-28T11:09:37;17.60;;;7.85;;
72920;SDS011;61064;51.654;5.476;2022-11-28T11:12:03;17.50;;;8.13;;
72920;SDS011;61064;51.654;5.476;2022-11-28T11:14:37;21.27;;;8.50;;
72920;SDS011;61064;51.654;5.476;2022-11-28T11:17:04;20.67;;;8.32;;
72920;SDS011;61064;51.654;5.476;2022-11-28T11:19:34;19.05;;;8.32;;
72920;SDS011;61064;51.654;5.476;2022-11-28T11:22:04;19.83;;;8.53;;
72920;SDS011;61064;51.654;5.476;2022-11-28T11:24:35;20.90;;;8.90;;
72920;SDS011;61064;51.654;5.476;2022-11-28T11:27:02;22.10;;;8.80;;
72920;SDS011;61064;51.654;5.476;2022-11-28T11:29:34;23.15;;;9.75;;
72920;SDS011;61064;51.654;5.476;2022-11-28T11:32:02;22.95;;;9.40;;
72920;SDS011;61064;51.654;5.476;2022-11-28T11:34:37;22.70;;;9.23;;
72920;SDS011;61064;51.654;5.476;2022-11-28T11:37:18;24.65;;;10.13;;
72920;SDS011;61064;51.654;5.476;2022-11-28T11:39:58;26.67;;;10.00;;
72920;SDS011;61064;51.654;5.476;2022-11-28T11:42:25;28.13;;;11.13;;
72920;SDS011;61064;51.654;5.476;2022-11-28T11:44:53;26.35;;;10.68;;
72920;SDS011;61064;51.654;5.476;2022-11-28T11:47:38;27.55;;;10.73;;
72920;SDS011;61064;51.654;5.476;2022-11-28T11:50:15;25.52;;;10.90;;
72920;SDS011;61064;51.654;5.476;2022-11-28T11:55:27;28.30;;;11.93;;
72920;SDS011;61064;51.654;5.476;2022-11-28T11:57:54;33.10;;;13.20;;
72920;SDS011;61064;51.654;5.476;2022-11-28T12:00:29;32.42;;;12.20;;
72920;SDS011;61064;51.654;5.476;2022-11-28T12:05:57;34.50;;;13.93;;
72920;SDS011;61064;51.654;5.476;2022-11-28T12:13:48;35.50;;;14.25;;
72920;SDS011;61064;51.654;5.476;2022-11-28T12:24:54;40.28;;;15.15;;
72920;SDS011;61064;51.654;5.476;2022-11-28T12:33:31;44.53;;;15.83;;
72920;SDS011;61064;51.654;5.476;2022-11-28T12:36:20;46.95;;;16.95;;
72920;SDS011;61064;51.654;5.476;2022-11-28T12:41:46;44.42;;;16.08;;
72920;SDS011;61064;51.654;5.476;2022-11-28T12:47:33;47.93;;;17.07;;
72920;SDS011;61064;51.654;5.476;2022-11-28T12:50:20;47.60;;;17.27;;
72920;SDS011;61064;51.654;5.476;2022-11-28T12:56:11;46.53;;;17.52;;
72920;SDS011;61064;51.654;5.476;2022-11-28T12:58:57;48.83;;;18.13;;
72920;SDS011;61064;51.654;5.476;2022-11-28T13:04:32;53.17;;;18.42;;
72920;SDS011;61064;51.654;5.476;2022-11-28T13:07:45;49.65;;;17.60;;
72920;SDS011;61064;51.654;5.476;2022-11-28T13:13:23;55.90;;;19.63;;
72920;SDS011;61064;51.654;5.476;2022-11-28T13:18:49;60.33;;;19.10;;
72920;SDS011;61064;51.654;5.476;2022-11-28T13:26:47;55.67;;;20.45;;
72920;SDS011;61064;51.654;5.476;2022-11-28T13:29:24;57.87;;;18.97;;
72920;SDS011;61064;51.654;5.476;2022-11-28T13:32:07;55.97;;;19.48;;
72920;SDS011;61064;51.654;5.476;2022-11-28T13:34:53;59.38;;;19.70;;
72920;SDS011;61064;51.654;5.476;2022-11-28T13:39:52;58.67;;;20.40;;
72920;SDS011;61064;51.654;5.476;2022-11-28T13:42:30;56.47;;;19.63;;
72920;SDS011;61064;51.654;5.476;2022-11-28T13:45:18;59.67;;;20.63;;
72920;SDS011;61064;51.654;5.476;2022-11-28T13:47:44;57.60;;;20.48;;
72920;SDS011;61064;51.654;5.476;2022-11-28T13:58:08;55.00;;;20.20;;
72920;SDS011;61064;51.654;5.476;2022-11-28T14:00:40;61.53;;;21.10;;
72920;SDS011;61064;51.654;5.476;2022-11-28T14:03:15;59.17;;;20.73;;
72920;SDS011;61064;51.654;5.476;2022-11-28T14:05:44;57.63;;;20.85;;
72920;SDS011;61064;51.654;5.476;2022-11-28T14:08:16;51.67;;;19.93;;
72920;SDS011;61064;51.654;5.476;2022-11-28T14:19:31;60.20;;;21.85;;
72920;SDS011;61064;51.654;5.476;2022-11-28T14:25:32;56.58;;;20.10;;
72920;SDS011;61064;51.654;5.476;2022-11-28T14:28:02;57.85;;;20.95;;
72920;SDS011;61064;51.654;5.476;2022-11-28T14:30:38;57.53;;;20.15;;
72920;SDS011;61064;51.654;5.476;2022-11-28T14:33:17;53.83;;;19.95;;
72920;SDS011;61064;51.654;5.476;2022-11-28T14:41:03;62.22;;;20.30;;
72920;SDS011;61064;51.654;5.476;2022-11-28T14:43:31;54.10;;;20.00;;
72920;SDS011;61064;51.654;5.476;2022-11-28T14:49:25;60.70;;;20.57;;
72920;SDS011;61064;51.654;5.476;2022-11-28T14:54:22;56.88;;;20.50;;
72920;SDS011;61064;51.654;5.476;2022-11-28T14:56:52;60.28;;;21.02;;
72920;SDS011;61064;51.654;5.476;2022-11-28T14:59:18;59.63;;;20.58;;
72920;SDS011;61064;51.654;5.476;2022-11-28T15:15:44;49.50;;;19.30;;
72920;SDS011;61064;51.654;5.476;2022-11-28T15:18:16;55.75;;;19.88;;
72920;SDS011;61064;51.654;5.476;2022-11-28T15:20:47;58.30;;;19.70;;
72920;SDS011;61064;51.654;5.476;2022-11-28T15:23:29;64.60;;;20.27;;
72920;SDS011;61064;51.654;5.476;2022-11-28T15:25:57;51.72;;;20.23;;
72920;SDS011;61064;51.654;5.476;2022-11-28T15:28:25;59.13;;;20.47;;
72920;SDS011;61064;51.654;5.476;2022-11-28T15:30:53;57.95;;;19.90;;
72920;SDS011;61064;51.654;5.476;2022-11-28T15:33:21;55.42;;;19.77;;
72920;SDS011;61064;51.654;5.476;2022-11-28T15:35:59;60.80;;;21.13;;
72920;SDS011;61064;51.654;5.476;2022-11-28T15:38:27;52.70;;;20.33;;
72920;SDS011;61064;51.654;5.476;2022-11-28T15:40:55;51.37;;;19.90;;
72920;SDS011;61064;51.654;5.476;2022-11-28T15:43:23;59.40;;;20.58;;
72920;SDS011;61064;51.654;5.476;2022-11-28T15:45:49;50.65;;;20.27;;
72920;SDS011;61064;51.654;5.476;2022-11-28T15:48:24;55.60;;;19.60;;
72920;SDS011;61064;51.654;5.476;2022-11-28T15:50:52;53.13;;;20.33;;
72920;SDS011;61064;51.654;5.476;2022-11-28T15:53:18;52.93;;;19.47;;
72920;SDS011;61064;51.654;5.476;2022-11-28T15:55:44;52.70;;;20.75;;
72920;SDS011;61064;51.654;5.476;2022-11-28T15:58:11;57.00;;;20.27;;
72920;SDS011;61064;51.654;5.476;2022-11-28T16:00:42;52.70;;;21.02;;
72920;SDS011;61064;51.654;5.476;2022-11-28T16:03:21;53.80;;;20.93;;
72920;SDS011;61064;51.654;5.476;2022-11-28T16:05:50;59.22;;;20.88;;
72920;SDS011;61064;51.654;5.476;2022-11-28T16:08:21;56.33;;;20.85;;
72920;SDS011;61064;51.654;5.476;2022-11-28T16:10:56;51.20;;;19.48;;
72920;SDS011;61064;51.654;5.476;2022-11-28T16:13:24;56.08;;;20.13;;
72920;SDS011;61064;51.654;5.476;2022-11-28T16:15:50;54.43;;;19.57;;
72920;SDS011;61064;51.654;5.476;2022-11-28T16:18:17;52.60;;;19.73;;
72920;SDS011;61064;51.654;5.476;2022-11-28T16:20:43;51.25;;;19.65;;
72920;SDS011;61064;51.654;5.476;2022-11-28T16:23:20;53.92;;;20.10;;
72920;SDS011;61064;51.654;5.476;2022-11-28T16:26:02;54.27;;;20.83;;
72920;SDS011;61064;51.654;5.476;2022-11-28T16:31:01;49.95;;;19.70;;
72920;SDS011;61064;51.654;5.476;2022-11-28T16:36:11;56.40;;;19.85;;
72920;SDS011;61064;51.654;5.476;2022-11-28T16:38:44;51.60;;;19.60;;
72920;SDS011;61064;51.654;5.476;2022-11-28T16:41:24;48.92;;;19.20;;
72920;SDS011;61064;51.654;5.476;2022-11-28T16:43:54;53.08;;;19.58;;
72920;SDS011;61064;51.654;5.476;2022-11-28T16:46:24;50.30;;;17.88;;
72920;SDS011;61064;51.654;5.476;2022-11-28T16:48:55;47.95;;;17.48;;
72920;SDS011;61064;51.654;5.476;2022-11-28T16:53:51;45.63;;;17.58;;
72920;SDS011;61064;51.654;5.476;2022-11-28T16:56:40;44.05;;;17.55;;
72920;SDS011;61064;51.654;5.476;2022-11-28T16:59:18;46.58;;;18.58;;
72920;SDS011;61064;51.654;5.476;2022-11-28T17:01:50;53.28;;;18.58;;
72920;SDS011;61064;51.654;5.476;2022-11-28T17:04:24;45.37;;;18.03;;
72920;SDS011;61064;51.654;5.476;2022-11-28T17:06:52;47.28;;;18.75;;
72920;SDS011;61064;51.654;5.476;2022-11-28T17:09:19;48.35;;;17.95;;
72920;SDS011;61064;51.654;5.476;2022-11-28T17:12:01;53.10;;;19.00;;
72920;SDS011;61064;51.654;5.476;2022-11-28T17:14:32;48.72;;;18.23;;
72920;SDS011;61064;51.654;5.476;2022-11-28T17:16:58;45.05;;;18.42;;
72920;SDS011;61064;51.654;5.476;2022-11-28T17:19:24;49.80;;;17.70;;
72920;SDS011;61064;51.654;5.476;2022-11-28T17:21:50;42.00;;;17.47;;
72920;SDS011;61064;51.654;5.476;2022-11-28T17:24:29;47.85;;;17.98;;
72920;SDS011;61064;51.654;5.476;2022-11-28T17:27:00;47.70;;;17.90;;
72920;SDS011;61064;51.654;5.476;2022-11-28T17:29:25;46.25;;;17.80;;
72920;SDS011;61064;51.654;5.476;2022-11-28T17:31:52;48.53;;;18.95;;
72920;SDS011;61064;51.654;5.476;2022-11-28T17:34:22;42.20;;;18.17;;
72920;SDS011;61064;51.654;5.476;2022-11-28T17:36:49;48.95;;;18.17;;
72920;SDS011;61064;51.654;5.476;2022-11-28T17:39:15;55.22;;;18.63;;
72920;SDS011;61064;51.654;5.476;2022-11-28T17:41:41;44.60;;;17.40;;
72920;SDS011;61064;51.654;5.476;2022-11-28T17:44:15;49.95;;;17.95;;
72920;SDS011;61064;51.654;5.476;2022-11-28T17:46:57;45.57;;;17.10;;
72920;SDS011;61064;51.654;5.476;2022-11-28T17:49:24;44.08;;;17.08;;
72920;SDS011;61064;51.654;5.476;2022-11-28T17:51:50;41.30;;;16.73;;
72920;SDS011;61064;51.654;5.476;2022-11-28T17:54:17;48.90;;;16.70;;
72920;SDS011;61064;51.654;5.476;2022-11-28T17:56:44;45.20;;;15.63;;
72920;SDS011;61064;51.654;5.476;2022-11-28T17:59:11;51.83;;;16.63;;
72920;SDS011;61064;51.654;5.476;2022-11-28T18:01:38;44.45;;;15.55;;
72920;SDS011;61064;51.654;5.476;2022-11-28T18:04:07;42.13;;;15.27;;
72920;SDS011;61064;51.654;5.476;2022-11-28T18:06:32;44.53;;;16.07;;
72920;SDS011;61064;51.654;5.476;2022-11-28T18:08:58;48.05;;;15.40;;
72920;SDS011;61064;51.654;5.476;2022-11-28T18:11:25;49.10;;;15.95;;
72920;SDS011;61064;51.654;5.476;2022-11-28T18:13:52;41.60;;;16.07;;
72920;SDS011;61064;51.654;5.476;2022-11-28T18:16:19;45.35;;;15.43;;
72920;SDS011;61064;51.654;5.476;2022-11-28T18:18:46;42.03;;;15.07;;
72920;SDS011;61064;51.654;5.476;2022-11-28T18:21:13;39.20;;;14.90;;
72920;SDS011;61064;51.654;5.476;2022-11-28T18:23:39;40.60;;;14.02;;
72920;SDS011;61064;51.654;5.476;2022-11-28T18:26:07;40.03;;;14.37;;
72920;SDS011;61064;51.654;5.476;2022-11-28T18:28:34;37.90;;;13.98;;